This is the latest recevied weather packets stored in our database for station/object KQ4TV-2. If no packets are shown the sender has not sent any weather packets the latest 10 day(s).
| Time | Temp. | Humidity | Pressure | Rain* | Wind** | Luminosity | Snow |
|---|---|---|---|---|---|---|---|
| 1788626613 | 33.89° C | 57% | - | 0 mm | - | - | - |
| 1788560411 | 36.11° C | 44% | - | 0 mm | - | - | - |
| 1788560170 | 36.67° C | 42% | - | 0 mm | - | - | - |
| 1788560049 | 37.22° C | 42% | - | 0 mm | - | - | - |
| 1788403183 | 28.89° C | 64% | - | 0 mm | - | - | - |
| 1788396778 | 30.56° C | 59% | - | 0 mm | - | - | - |
| 1788303480 | 35° C | 45% | - | 0 mm | - | - | - |
| 1788220428 | 31.67° C | 57% | - | 0 mm | - | - | - |
| 1788214869 | 33.89° C | 49% | - | 0 mm | - | - | - |
| 1788211244 | 33.89° C | 51% | - | 0 mm | - | - | - |
| 1788178197 | 22.78° C | 90% | - | 0 mm | - | - | - |
| 1788178137 | 22.78° C | 90% | - | 0 mm | - | - | - |
| 1788177049 | 22.78° C | 90% | - | 0 mm | - | - | - |
| 1788176928 | 22.78° C | 90% | - | 0 mm | - | - | - |
| 1788162668 | 25° C | 82% | - | 0 mm | - | - | - |
| 1788157109 | 26.11° C | 80% | - | 0 mm | - | - | - |
| 1788153000 | 26.67° C | 76% | - | 0 mm | - | - | - |
| 1788152637 | 26.67° C | 76% | - | 0 mm | - | - | - |
| 1788144178 | 27.78° C | 75% | - | 0 mm | - | - | - |
| 1788143565 | 27.78° C | 74% | - | 0 mm | - | - | - |
| 1788143452 | 27.78° C | 74% | - | 0 mm | - | - | - |
| 1788142606 | 27.78° C | 73% | - | 0 mm | - | - | - |
| 1788135599 | 30° C | 60% | - | 0 mm | - | - | - |
| 1788135116 | 30.56° C | 59% | - | 0 mm | - | - | - |
| 1788134512 | 30.56° C | 58% | - | 0 mm | - | - | - |
* Rain since midnight (hover to see other rain measurements)
** Current wind speed in m/s (hover to see current wind gust speed)